Terminal Aerodrome Forecast
Issued by NWS Chicago, IL

Home | Current Version | Previous Version | Graphics & Text | Print | Product List | Glossary On
Versions: 1 2 3 4 5 6 7 8 9 10 11 12 13 14 15 16 17 18 19 20 21 22 23 24 25
492
FTUS43 KLOT 152335
TAFRFD
TAF
KRFD 152335Z 1600/1624 29012G17KT 2SM -SN SCT015 OVC025
      TEMPO 1600/1603 1SM -SN BKN015
     FM160600 30012KT 5SM -SN SCT015 OVC025
      TEMPO 1606/1609 1 1/2SM -SN SCT009 OVC015
     FM161300 32012KT P6SM BKN025
     FM161700 33010KT P6SM BKN035=

USA.gov is the U.S. government's official web portal to all federal, state and local government web resources and services.